sensor_id;sensor_type;location;lat;lon;timestamp;P1;durP1;ratioP1;P2;durP2;ratioP2
30850;SDS011;17567;48.382;9.102;2023-04-24T00:12:27;1.23;;;0.80;;
30850;SDS011;17567;48.382;9.102;2023-04-24T00:17:28;1.23;;;0.70;;
30850;SDS011;17567;48.382;9.102;2023-04-24T00:22:28;0.73;;;0.60;;
30850;SDS011;17567;48.382;9.102;2023-04-24T00:27:29;0.87;;;0.83;;
30850;SDS011;17567;48.382;9.102;2023-04-24T00:32:30;1.10;;;1.00;;
30850;SDS011;17567;48.382;9.102;2023-04-24T00:37:31;0.70;;;0.70;;
30850;SDS011;17567;48.382;9.102;2023-04-24T00:42:31;1.13;;;0.80;;
30850;SDS011;17567;48.382;9.102;2023-04-24T00:47:33;0.87;;;0.80;;
30850;SDS011;17567;48.382;9.102;2023-04-24T00:52:34;0.73;;;0.73;;
30850;SDS011;17567;48.382;9.102;2023-04-24T00:57:34;0.80;;;0.80;;
30850;SDS011;17567;48.382;9.102;2023-04-24T01:02:36;2.20;;;0.83;;
30850;SDS011;17567;48.382;9.102;2023-04-24T01:07:44;2.60;;;0.80;;
30850;SDS011;17567;48.382;9.102;2023-04-24T01:12:45;1.90;;;0.90;;
30850;SDS011;17567;48.382;9.102;2023-04-24T01:17:46;1.27;;;0.83;;
30850;SDS011;17567;48.382;9.102;2023-04-24T01:22:47;1.70;;;1.00;;
30850;SDS011;17567;48.382;9.102;2023-04-24T01:27:47;2.97;;;0.90;;
30850;SDS011;17567;48.382;9.102;2023-04-24T01:32:48;1.93;;;1.00;;
30850;SDS011;17567;48.382;9.102;2023-04-24T01:37:49;2.10;;;0.90;;
30850;SDS011;17567;48.382;9.102;2023-04-24T01:42:50;1.93;;;0.80;;
30850;SDS011;17567;48.382;9.102;2023-04-24T01:47:51;2.47;;;0.97;;
30850;SDS011;17567;48.382;9.102;2023-04-24T01:52:52;4.10;;;0.97;;
30850;SDS011;17567;48.382;9.102;2023-04-24T01:57:52;1.23;;;0.90;;
30850;SDS011;17567;48.382;9.102;2023-04-24T02:02:55;1.80;;;0.70;;
30850;SDS011;17567;48.382;9.102;2023-04-24T02:07:56;0.67;;;0.67;;
30850;SDS011;17567;48.382;9.102;2023-04-24T02:12:56;1.53;;;0.80;;
30850;SDS011;17567;48.382;9.102;2023-04-24T02:17:59;0.77;;;0.77;;
30850;SDS011;17567;48.382;9.102;2023-04-24T02:23:00;0.93;;;0.80;;
30850;SDS011;17567;48.382;9.102;2023-04-24T02:28:01;2.57;;;0.67;;
30850;SDS011;17567;48.382;9.102;2023-04-24T02:33:02;0.97;;;0.97;;
30850;SDS011;17567;48.382;9.102;2023-04-24T02:38:03;1.03;;;0.90;;
30850;SDS011;17567;48.382;9.102;2023-04-24T02:43:04;1.90;;;0.90;;
30850;SDS011;17567;48.382;9.102;2023-04-24T02:48:04;1.93;;;0.80;;
30850;SDS011;17567;48.382;9.102;2023-04-24T02:53:05;1.27;;;0.80;;
30850;SDS011;17567;48.382;9.102;2023-04-24T02:58:05;0.60;;;0.60;;
30850;SDS011;17567;48.382;9.102;2023-04-24T03:03:06;1.63;;;0.80;;
30850;SDS011;17567;48.382;9.102;2023-04-24T03:08:07;1.40;;;0.70;;
30850;SDS011;17567;48.382;9.102;2023-04-24T03:13:07;1.90;;;0.97;;
30850;SDS011;17567;48.382;9.102;2023-04-24T03:18:08;1.00;;;0.80;;
30850;SDS011;17567;48.382;9.102;2023-04-24T03:23:08;1.77;;;1.40;;
30850;SDS011;17567;48.382;9.102;2023-04-24T03:28:09;1.43;;;1.33;;
30850;SDS011;17567;48.382;9.102;2023-04-24T03:33:10;1.10;;;1.00;;
30850;SDS011;17567;48.382;9.102;2023-04-24T03:38:10;1.00;;;0.90;;
30850;SDS011;17567;48.382;9.102;2023-04-24T03:43:11;2.73;;;0.70;;
30850;SDS011;17567;48.382;9.102;2023-04-24T03:48:11;1.03;;;0.90;;
30850;SDS011;17567;48.382;9.102;2023-04-24T03:53:12;1.47;;;0.97;;
30850;SDS011;17567;48.382;9.102;2023-04-24T03:58:13;2.30;;;1.00;;
30850;SDS011;17567;48.382;9.102;2023-04-24T04:03:14;2.10;;;1.20;;
30850;SDS011;17567;48.382;9.102;2023-04-24T04:08:15;2.37;;;1.40;;
30850;SDS011;17567;48.382;9.102;2023-04-24T04:13:15;2.00;;;1.00;;
30850;SDS011;17567;48.382;9.102;2023-04-24T04:18:16;2.27;;;1.70;;
30850;SDS011;17567;48.382;9.102;2023-04-24T04:23:16;3.97;;;0.97;;
30850;SDS011;17567;48.382;9.102;2023-04-24T04:28:17;0.80;;;0.80;;
30850;SDS011;17567;48.382;9.102;2023-04-24T04:33:21;1.00;;;0.80;;
30850;SDS011;17567;48.382;9.102;2023-04-24T04:38:22;4.73;;;2.83;;
30850;SDS011;17567;48.382;9.102;2023-04-24T04:43:23;2.07;;;1.50;;
30850;SDS011;17567;48.382;9.102;2023-04-24T04:48:24;3.90;;;2.33;;
30850;SDS011;17567;48.382;9.102;2023-04-24T04:53:25;1.13;;;0.90;;
30850;SDS011;17567;48.382;9.102;2023-04-24T04:58:26;1.93;;;1.63;;
30850;SDS011;17567;48.382;9.102;2023-04-24T05:03:27;1.40;;;1.20;;
30850;SDS011;17567;48.382;9.102;2023-04-24T05:08:28;1.87;;;1.30;;
30850;SDS011;17567;48.382;9.102;2023-04-24T05:13:28;2.83;;;1.50;;
30850;SDS011;17567;48.382;9.102;2023-04-24T05:18:29;1.80;;;1.70;;
30850;SDS011;17567;48.382;9.102;2023-04-24T05:23:30;2.33;;;1.90;;
30850;SDS011;17567;48.382;9.102;2023-04-24T05:28:31;2.93;;;2.43;;
30850;SDS011;17567;48.382;9.102;2023-04-24T05:33:31;2.30;;;1.90;;
30850;SDS011;17567;48.382;9.102;2023-04-24T05:38:35;2.00;;;1.90;;
30850;SDS011;17567;48.382;9.102;2023-04-24T05:43:35;2.57;;;1.70;;
30850;SDS011;17567;48.382;9.102;2023-04-24T05:48:36;18.37;;;14.17;;
30850;SDS011;17567;48.382;9.102;2023-04-24T05:53:36;3.93;;;3.60;;
30850;SDS011;17567;48.382;9.102;2023-04-24T05:58:37;2.30;;;2.10;;
30850;SDS011;17567;48.382;9.102;2023-04-24T06:03:38;2.40;;;2.07;;
30850;SDS011;17567;48.382;9.102;2023-04-24T06:08:39;2.83;;;1.67;;
30850;SDS011;17567;48.382;9.102;2023-04-24T06:13:40;2.63;;;2.43;;
30850;SDS011;17567;48.382;9.102;2023-04-24T06:18:40;2.20;;;2.00;;
30850;SDS011;17567;48.382;9.102;2023-04-24T06:23:41;3.27;;;2.13;;
30850;SDS011;17567;48.382;9.102;2023-04-24T06:28:42;2.17;;;1.90;;
30850;SDS011;17567;48.382;9.102;2023-04-24T06:33:43;4.27;;;2.20;;
30850;SDS011;17567;48.382;9.102;2023-04-24T06:38:44;2.90;;;2.43;;
30850;SDS011;17567;48.382;9.102;2023-04-24T06:43:45;2.50;;;2.27;;
30850;SDS011;17567;48.382;9.102;2023-04-24T06:48:46;3.27;;;2.97;;
30850;SDS011;17567;48.382;9.102;2023-04-24T06:53:47;3.20;;;2.80;;
30850;SDS011;17567;48.382;9.102;2023-04-24T06:58:47;4.13;;;2.90;;
30850;SDS011;17567;48.382;9.102;2023-04-24T07:03:48;3.90;;;2.80;;
30850;SDS011;17567;48.382;9.102;2023-04-24T07:08:49;4.07;;;2.93;;
30850;SDS011;17567;48.382;9.102;2023-04-24T07:13:49;4.67;;;2.77;;
30850;SDS011;17567;48.382;9.102;2023-04-24T07:18:53;3.00;;;2.70;;
30850;SDS011;17567;48.382;9.102;2023-04-24T07:23:53;3.90;;;2.77;;
30850;SDS011;17567;48.382;9.102;2023-04-24T07:28:54;4.10;;;2.50;;
30850;SDS011;17567;48.382;9.102;2023-04-24T07:33:55;2.93;;;2.60;;
30850;SDS011;17567;48.382;9.102;2023-04-24T07:38:57;2.77;;;2.43;;
30850;SDS011;17567;48.382;9.102;2023-04-24T07:43:58;2.27;;;1.83;;
30850;SDS011;17567;48.382;9.102;2023-04-24T07:48:59;4.23;;;2.20;;
30850;SDS011;17567;48.382;9.102;2023-04-24T07:54:01;2.00;;;1.80;;
30850;SDS011;17567;48.382;9.102;2023-04-24T07:59:01;4.10;;;1.80;;
30850;SDS011;17567;48.382;9.102;2023-04-24T08:04:02;2.13;;;1.87;;
30850;SDS011;17567;48.382;9.102;2023-04-24T08:09:03;2.30;;;2.10;;
30850;SDS011;17567;48.382;9.102;2023-04-24T08:14:03;4.50;;;1.83;;
30850;SDS011;17567;48.382;9.102;2023-04-24T08:19:04;3.13;;;2.10;;
30850;SDS011;17567;48.382;9.102;2023-04-24T08:24:05;2.50;;;1.97;;
30850;SDS011;17567;48.382;9.102;2023-04-24T08:29:07;3.90;;;2.40;;
30850;SDS011;17567;48.382;9.102;2023-04-24T08:34:09;2.30;;;2.10;;
30850;SDS011;17567;48.382;9.102;2023-04-24T08:39:10;4.27;;;2.63;;
30850;SDS011;17567;48.382;9.102;2023-04-24T08:44:11;3.10;;;1.90;;
30850;SDS011;17567;48.382;9.102;2023-04-24T08:49:13;3.17;;;2.10;;
30850;SDS011;17567;48.382;9.102;2023-04-24T08:54:17;3.90;;;1.90;;
30850;SDS011;17567;48.382;9.102;2023-04-24T08:59:18;2.23;;;1.80;;
30850;SDS011;17567;48.382;9.102;2023-04-24T09:04:21;5.70;;;2.47;;
30850;SDS011;17567;48.382;9.102;2023-04-24T09:09:24;5.40;;;2.60;;
30850;SDS011;17567;48.382;9.102;2023-04-24T09:14:25;2.57;;;2.27;;
30850;SDS011;17567;48.382;9.102;2023-04-24T09:19:28;2.70;;;2.00;;
30850;SDS011;17567;48.382;9.102;2023-04-24T09:24:28;2.43;;;2.23;;
30850;SDS011;17567;48.382;9.102;2023-04-24T09:29:29;3.97;;;2.70;;
30850;SDS011;17567;48.382;9.102;2023-04-24T09:34:29;2.70;;;2.20;;
30850;SDS011;17567;48.382;9.102;2023-04-24T09:39:30;3.20;;;2.00;;
30850;SDS011;17567;48.382;9.102;2023-04-24T09:44:33;2.97;;;2.07;;
30850;SDS011;17567;48.382;9.102;2023-04-24T09:49:34;3.53;;;2.13;;
30850;SDS011;17567;48.382;9.102;2023-04-24T09:54:39;2.70;;;1.90;;
30850;SDS011;17567;48.382;9.102;2023-04-24T09:59:45;2.77;;;2.37;;
30850;SDS011;17567;48.382;9.102;2023-04-24T10:04:55;2.97;;;1.97;;
30850;SDS011;17567;48.382;9.102;2023-04-24T10:10:00;4.57;;;2.03;;
30850;SDS011;17567;48.382;9.102;2023-04-24T10:15:01;3.97;;;2.70;;
30850;SDS011;17567;48.382;9.102;2023-04-24T10:20:03;4.10;;;2.30;;
30850;SDS011;17567;48.382;9.102;2023-04-24T10:25:06;4.03;;;2.10;;
30850;SDS011;17567;48.382;9.102;2023-04-24T10:30:07;2.50;;;1.50;;
30850;SDS011;17567;48.382;9.102;2023-04-24T10:35:09;3.70;;;1.80;;
30850;SDS011;17567;48.382;9.102;2023-04-24T10:40:12;2.70;;;1.90;;
30850;SDS011;17567;48.382;9.102;2023-04-24T10:45:18;2.63;;;1.57;;
30850;SDS011;17567;48.382;9.102;2023-04-24T10:50:21;3.20;;;1.53;;
30850;SDS011;17567;48.382;9.102;2023-04-24T11:00:54;3.03;;;1.60;;
30850;SDS011;17567;48.382;9.102;2023-04-24T11:11:16;2.93;;;1.40;;
30850;SDS011;17567;48.382;9.102;2023-04-24T11:16:21;1.50;;;1.40;;
30850;SDS011;17567;48.382;9.102;2023-04-24T11:21:28;3.03;;;1.50;;
30850;SDS011;17567;48.382;9.102;2023-04-24T11:26:32;1.60;;;1.50;;
30850;SDS011;17567;48.382;9.102;2023-04-24T11:31:39;1.60;;;1.50;;
30850;SDS011;17567;48.382;9.102;2023-04-24T11:36:45;3.03;;;1.37;;
30850;SDS011;17567;48.382;9.102;2023-04-24T11:41:47;3.20;;;1.40;;
30850;SDS011;17567;48.382;9.102;2023-04-24T11:46:47;1.57;;;1.00;;
30850;SDS011;17567;48.382;9.102;2023-04-24T11:51:50;1.67;;;1.10;;
30850;SDS011;17567;48.382;9.102;2023-04-24T11:56:55;0.90;;;0.90;;
30850;SDS011;17567;48.382;9.102;2023-04-24T12:01:56;1.53;;;1.00;;
30850;SDS011;17567;48.382;9.102;2023-04-24T12:07:03;1.20;;;1.10;;
30850;SDS011;17567;48.382;9.102;2023-04-24T12:12:05;1.13;;;1.03;;
30850;SDS011;17567;48.382;9.102;2023-04-24T12:17:06;1.63;;;1.17;;
30850;SDS011;17567;48.382;9.102;2023-04-24T12:22:07;7.40;;;1.30;;
30850;SDS011;17567;48.382;9.102;2023-04-24T12:27:07;3.17;;;1.50;;
30850;SDS011;17567;48.382;9.102;2023-04-24T12:32:18;2.13;;;1.20;;
30850;SDS011;17567;48.382;9.102;2023-04-24T12:37:20;3.53;;;1.20;;
30850;SDS011;17567;48.382;9.102;2023-04-24T12:42:25;1.40;;;1.23;;
30850;SDS011;17567;48.382;9.102;2023-04-24T12:47:27;2.10;;;1.27;;
30850;SDS011;17567;48.382;9.102;2023-04-24T12:52:28;1.40;;;1.30;;
30850;SDS011;17567;48.382;9.102;2023-04-24T12:57:30;1.77;;;1.67;;
30850;SDS011;17567;48.382;9.102;2023-04-24T13:02:31;3.37;;;1.70;;
30850;SDS011;17567;48.382;9.102;2023-04-24T13:07:32;1.87;;;1.53;;
30850;SDS011;17567;48.382;9.102;2023-04-24T13:12:34;2.67;;;1.77;;
30850;SDS011;17567;48.382;9.102;2023-04-24T13:17:35;4.23;;;1.60;;
30850;SDS011;17567;48.382;9.102;2023-04-24T13:22:35;2.33;;;1.50;;
30850;SDS011;17567;48.382;9.102;2023-04-24T13:27:39;1.27;;;1.17;;
30850;SDS011;17567;48.382;9.102;2023-04-24T13:32:42;3.17;;;1.37;;
30850;SDS011;17567;48.382;9.102;2023-04-24T13:37:45;3.00;;;1.30;;
30850;SDS011;17567;48.382;9.102;2023-04-24T13:42:46;1.57;;;1.33;;
30850;SDS011;17567;48.382;9.102;2023-04-24T13:47:46;2.07;;;1.30;;
30850;SDS011;17567;48.382;9.102;2023-04-24T13:52:50;2.77;;;1.40;;
30850;SDS011;17567;48.382;9.102;2023-04-24T13:57:51;1.80;;;1.30;;
30850;SDS011;17567;48.382;9.102;2023-04-24T14:02:54;2.23;;;1.53;;
30850;SDS011;17567;48.382;9.102;2023-04-24T14:07:57;2.27;;;1.33;;
30850;SDS011;17567;48.382;9.102;2023-04-24T14:13:00;3.43;;;1.30;;
30850;SDS011;17567;48.382;9.102;2023-04-24T14:18:01;3.00;;;1.63;;
30850;SDS011;17567;48.382;9.102;2023-04-24T14:23:03;1.27;;;1.17;;
30850;SDS011;17567;48.382;9.102;2023-04-24T14:28:05;1.40;;;1.30;;
30850;SDS011;17567;48.382;9.102;2023-04-24T14:33:06;1.83;;;1.20;;
30850;SDS011;17567;48.382;9.102;2023-04-24T14:38:06;2.33;;;2.13;;
30850;SDS011;17567;48.382;9.102;2023-04-24T14:43:07;1.33;;;1.23;;
30850;SDS011;17567;48.382;9.102;2023-04-24T14:48:08;1.47;;;1.37;;
30850;SDS011;17567;48.382;9.102;2023-04-24T14:53:08;2.00;;;1.63;;
30850;SDS011;17567;48.382;9.102;2023-04-24T14:58:09;2.77;;;2.50;;
30850;SDS011;17567;48.382;9.102;2023-04-24T15:03:10;1.90;;;1.70;;
30850;SDS011;17567;48.382;9.102;2023-04-24T15:08:12;1.47;;;1.37;;
30850;SDS011;17567;48.382;9.102;2023-04-24T15:13:12;1.53;;;1.30;;
30850;SDS011;17567;48.382;9.102;2023-04-24T15:18:13;3.67;;;1.43;;
30850;SDS011;17567;48.382;9.102;2023-04-24T15:23:14;3.23;;;1.67;;
30850;SDS011;17567;48.382;9.102;2023-04-24T15:28:15;1.53;;;1.43;;
30850;SDS011;17567;48.382;9.102;2023-04-24T15:33:16;2.13;;;1.50;;
30850;SDS011;17567;48.382;9.102;2023-04-24T15:38:16;2.03;;;1.70;;
30850;SDS011;17567;48.382;9.102;2023-04-24T15:43:17;1.60;;;1.50;;
30850;SDS011;17567;48.382;9.102;2023-04-24T15:48:18;2.00;;;1.80;;
30850;SDS011;17567;48.382;9.102;2023-04-24T15:53:19;2.10;;;1.90;;
30850;SDS011;17567;48.382;9.102;2023-04-24T15:58:22;2.03;;;1.60;;
30850;SDS011;17567;48.382;9.102;2023-04-24T16:03:23;1.80;;;1.63;;
30850;SDS011;17567;48.382;9.102;2023-04-24T16:08:23;2.03;;;1.67;;
30850;SDS011;17567;48.382;9.102;2023-04-24T16:13:24;1.53;;;1.43;;
30850;SDS011;17567;48.382;9.102;2023-04-24T16:18:25;2.37;;;1.97;;
30850;SDS011;17567;48.382;9.102;2023-04-24T16:23:26;1.93;;;1.53;;
30850;SDS011;17567;48.382;9.102;2023-04-24T16:28:27;1.50;;;1.40;;
30850;SDS011;17567;48.382;9.102;2023-04-24T16:33:30;2.30;;;2.10;;
30850;SDS011;17567;48.382;9.102;2023-04-24T16:38:30;1.63;;;1.20;;
30850;SDS011;17567;48.382;9.102;2023-04-24T16:43:31;2.60;;;1.50;;
30850;SDS011;17567;48.382;9.102;2023-04-24T16:48:33;1.40;;;1.30;;
30850;SDS011;17567;48.382;9.102;2023-04-24T16:53:37;2.70;;;1.50;;
30850;SDS011;17567;48.382;9.102;2023-04-24T16:58:38;1.60;;;1.50;;
30850;SDS011;17567;48.382;9.102;2023-04-24T17:03:38;4.60;;;1.40;;
30850;SDS011;17567;48.382;9.102;2023-04-24T17:08:40;1.93;;;1.40;;
30850;SDS011;17567;48.382;9.102;2023-04-24T17:13:40;2.10;;;1.73;;
30850;SDS011;17567;48.382;9.102;2023-04-24T17:18:41;1.60;;;1.43;;
30850;SDS011;17567;48.382;9.102;2023-04-24T17:23:42;2.43;;;2.23;;
30850;SDS011;17567;48.382;9.102;2023-04-24T17:28:45;3.17;;;2.83;;
30850;SDS011;17567;48.382;9.102;2023-04-24T17:33:46;2.10;;;2.00;;
30850;SDS011;17567;48.382;9.102;2023-04-24T17:38:46;2.73;;;2.27;;
30850;SDS011;17567;48.382;9.102;2023-04-24T17:43:47;1.80;;;1.70;;
30850;SDS011;17567;48.382;9.102;2023-04-24T17:48:48;1.70;;;1.60;;
30850;SDS011;17567;48.382;9.102;2023-04-24T17:53:49;2.87;;;1.97;;
30850;SDS011;17567;48.382;9.102;2023-04-24T17:58:51;3.10;;;1.87;;
30850;SDS011;17567;48.382;9.102;2023-04-24T18:03:51;3.60;;;1.60;;
30850;SDS011;17567;48.382;9.102;2023-04-24T18:08:52;2.37;;;1.70;;
30850;SDS011;17567;48.382;9.102;2023-04-24T18:13:53;2.67;;;2.30;;
30850;SDS011;17567;48.382;9.102;2023-04-24T18:18:54;2.23;;;1.70;;
30850;SDS011;17567;48.382;9.102;2023-04-24T18:23:55;6.23;;;1.90;;
30850;SDS011;17567;48.382;9.102;2023-04-24T18:28:59;3.03;;;2.77;;
30850;SDS011;17567;48.382;9.102;2023-04-24T18:33:59;4.70;;;3.70;;
30850;SDS011;17567;48.382;9.102;2023-04-24T18:39:00;3.60;;;3.30;;
30850;SDS011;17567;48.382;9.102;2023-04-24T18:44:01;4.20;;;3.57;;
30850;SDS011;17567;48.382;9.102;2023-04-24T18:49:02;2.87;;;2.57;;
30850;SDS011;17567;48.382;9.102;2023-04-24T18:54:03;3.60;;;2.57;;
30850;SDS011;17567;48.382;9.102;2023-04-24T18:59:04;5.60;;;2.67;;
30850;SDS011;17567;48.382;9.102;2023-04-24T19:04:04;3.30;;;2.77;;
30850;SDS011;17567;48.382;9.102;2023-04-24T19:09:05;3.80;;;2.90;;
30850;SDS011;17567;48.382;9.102;2023-04-24T19:14:06;12.97;;;6.80;;
30850;SDS011;17567;48.382;9.102;2023-04-24T19:19:07;6.97;;;2.90;;
30850;SDS011;17567;48.382;9.102;2023-04-24T19:24:08;3.10;;;2.43;;
30850;SDS011;17567;48.382;9.102;2023-04-24T19:29:09;3.10;;;2.80;;
30850;SDS011;17567;48.382;9.102;2023-04-24T19:34:10;4.10;;;3.00;;
30850;SDS011;17567;48.382;9.102;2023-04-24T19:39:14;5.10;;;3.07;;
30850;SDS011;17567;48.382;9.102;2023-04-24T19:44:15;3.17;;;2.90;;
30850;SDS011;17567;48.382;9.102;2023-04-24T19:49:16;4.57;;;3.17;;
30850;SDS011;17567;48.382;9.102;2023-04-24T19:54:16;6.93;;;5.00;;
30850;SDS011;17567;48.382;9.102;2023-04-24T19:59:19;7.60;;;4.90;;
30850;SDS011;17567;48.382;9.102;2023-04-24T20:04:20;3.33;;;2.90;;
30850;SDS011;17567;48.382;9.102;2023-04-24T20:09:22;4.50;;;2.40;;
30850;SDS011;17567;48.382;9.102;2023-04-24T20:14:22;3.20;;;2.90;;
30850;SDS011;17567;48.382;9.102;2023-04-24T20:19:23;3.83;;;3.53;;
30850;SDS011;17567;48.382;9.102;2023-04-24T20:24:23;5.33;;;3.40;;
30850;SDS011;17567;48.382;9.102;2023-04-24T20:29:24;3.53;;;3.20;;
30850;SDS011;17567;48.382;9.102;2023-04-24T20:34:25;5.30;;;3.90;;
30850;SDS011;17567;48.382;9.102;2023-04-24T20:39:25;6.27;;;4.50;;
30850;SDS011;17567;48.382;9.102;2023-04-24T20:44:26;4.67;;;4.10;;
30850;SDS011;17567;48.382;9.102;2023-04-24T20:49:33;4.43;;;4.03;;
30850;SDS011;17567;48.382;9.102;2023-04-24T20:54:34;4.60;;;2.67;;
30850;SDS011;17567;48.382;9.102;2023-04-24T20:59:34;2.80;;;2.60;;
30850;SDS011;17567;48.382;9.102;2023-04-24T21:04:35;3.80;;;2.37;;
30850;SDS011;17567;48.382;9.102;2023-04-24T21:09:38;3.23;;;2.67;;
30850;SDS011;17567;48.382;9.102;2023-04-24T21:14:39;3.03;;;2.80;;
30850;SDS011;17567;48.382;9.102;2023-04-24T21:19:40;3.23;;;2.60;;
30850;SDS011;17567;48.382;9.102;2023-04-24T21:24:41;3.13;;;2.83;;
30850;SDS011;17567;48.382;9.102;2023-04-24T21:29:41;5.17;;;3.90;;
30850;SDS011;17567;48.382;9.102;2023-04-24T21:34:42;4.33;;;4.03;;
30850;SDS011;17567;48.382;9.102;2023-04-24T21:39:43;5.43;;;4.47;;
30850;SDS011;17567;48.382;9.102;2023-04-24T21:44:43;5.40;;;4.37;;
30850;SDS011;17567;48.382;9.102;2023-04-24T21:49:44;4.73;;;3.67;;
30850;SDS011;17567;48.382;9.102;2023-04-24T21:54:44;6.63;;;4.33;;
30850;SDS011;17567;48.382;9.102;2023-04-24T21:59:45;7.70;;;5.77;;
30850;SDS011;17567;48.382;9.102;2023-04-24T22:04:46;9.80;;;5.33;;
30850;SDS011;17567;48.382;9.102;2023-04-24T22:09:47;4.87;;;3.80;;
30850;SDS011;17567;48.382;9.102;2023-04-24T22:14:48;3.47;;;2.97;;
30850;SDS011;17567;48.382;9.102;2023-04-24T22:19:49;4.60;;;3.30;;
30850;SDS011;17567;48.382;9.102;2023-04-24T22:24:50;6.17;;;3.70;;
30850;SDS011;17567;48.382;9.102;2023-04-24T22:29:51;4.77;;;4.27;;
30850;SDS011;17567;48.382;9.102;2023-04-24T22:34:52;8.07;;;3.57;;
30850;SDS011;17567;48.382;9.102;2023-04-24T22:39:53;6.07;;;4.60;;
30850;SDS011;17567;48.382;9.102;2023-04-24T22:44:53;9.47;;;3.27;;
30850;SDS011;17567;48.382;9.102;2023-04-24T22:49:54;4.33;;;3.47;;
30850;SDS011;17567;48.382;9.102;2023-04-24T22:54:56;8.23;;;3.40;;
30850;SDS011;17567;48.382;9.102;2023-04-24T22:59:57;6.03;;;3.80;;
30850;SDS011;17567;48.382;9.102;2023-04-24T23:04:58;6.03;;;3.77;;
30850;SDS011;17567;48.382;9.102;2023-04-24T23:09:58;5.40;;;3.70;;
30850;SDS011;17567;48.382;9.102;2023-04-24T23:14:59;7.80;;;3.60;;
30850;SDS011;17567;48.382;9.102;2023-04-24T23:20:00;7.10;;;3.23;;
30850;SDS011;17567;48.382;9.102;2023-04-24T23:25:00;4.90;;;3.30;;
30850;SDS011;17567;48.382;9.102;2023-04-24T23:30:02;3.93;;;3.20;;
30850;SDS011;17567;48.382;9.102;2023-04-24T23:35:03;4.93;;;3.47;;
30850;SDS011;17567;48.382;9.102;2023-04-24T23:40:05;4.40;;;3.20;;
30850;SDS011;17567;48.382;9.102;2023-04-24T23:45:11;6.17;;;3.03;;
30850;SDS011;17567;48.382;9.102;2023-04-24T23:50:12;3.33;;;2.80;;
30850;SDS011;17567;48.382;9.102;2023-04-24T23:55:12;3.83;;;3.40;;
